Lac-Bouchette, Canada
Current Conditions -  °F | °C
As of 3:00 PM on Tuesday 25 Nov 2014 (Local Time) from CYRJ Reporting Station
Broken Clouds Broken Clouds  
Wind Chill: 33°   Ceiling: 3500
Heat Index: 41°   Visibility: 25mi
Dew Point: 28°   Wind: 16mph
Humidity: 61%   Direction: 260°W
Pressure: 29.61"   Gusts: 26mph
Location:  48.27°N, 72.17°W
Report Text: CYRJ 252000Z 26014G23KT 210V270 25SM FEW015 BKN035 05/M02 A2961 RMK SC2SC5 SLP032
Loading
Personal Weather Stations






























Interactive Weather Map New forecast layout! Learn more

10-Day Weather Forecast

Advertisements
Track Severe Weather on mobile